Time;durP1;ratioP1;P1;durP2;ratioP2;P2;SDS_P1;SDS_P2;PMS_P1;PMS_P2;Temp;Humidity;BMP_temperature;BMP_pressure;BME280_temperature;BME280_humidity;BME280_pressure;Samples;Min_cycle;Max_cycle;Signal;HPM_P1;HPM_P2
2022/12/26 00:02:04;;;;;;;25.30;15.13;;;;;;;8.72;81.76;95538.69;5132547;27;20315;-45
2022/12/26 00:04:31;;;;;;;25.37;14.43;;;;;;;8.71;81.55;95541.31;5112217;28;20177;-45
2022/12/26 00:06:58;;;;;;;25.60;15.70;;;;;;;8.70;81.61;95534.59;5110853;28;20189;-46
2022/12/26 00:09:25;;;;;;;21.37;14.83;;;;;;;8.68;81.76;95528.75;5111148;28;20847;-46
2022/12/26 00:11:51;;;;;;;26.77;15.20;;;;;;;8.65;81.77;95529.81;5112025;28;20196;-47
2022/12/26 00:14:20;;;;;;;24.47;15.23;;;;;;;8.63;81.71;95523.97;5119494;27;20258;-46
2022/12/26 00:16:46;;;;;;;22.80;14.83;;;;;;;8.63;81.74;95541.03;5132801;27;20212;-46
2022/12/26 00:19:19;;;;;;;23.87;15.40;;;;;;;8.56;81.59;95530.44;5140989;27;20195;-49
2022/12/26 00:21:46;;;;;;;24.23;14.33;;;;;;;8.61;81.59;95547.97;5131615;27;20651;-46
2022/12/26 00:24:13;;;;;;;24.47;15.27;;;;;;;8.59;81.73;95545.50;5132018;27;20680;-45
2022/12/26 00:26:40;;;;;;;27.13;15.33;;;;;;;8.59;81.78;95549.78;5131985;27;20180;-46
2022/12/26 00:29:06;;;;;;;23.57;14.60;;;;;;;8.57;81.65;95552.47;5132201;27;20244;-46
2022/12/26 00:31:35;;;;;;;22.37;14.40;;;;;;;8.46;81.81;95540.44;5131601;27;20196;-47
2022/12/26 00:34:02;;;;;;;21.57;14.37;;;;;;;8.51;81.82;95552.88;5132051;27;20563;-45
2022/12/26 00:36:31;;;;;;;25.87;14.93;;;;;;;8.36;81.64;95520.75;5131677;27;20218;-46
2022/12/26 00:38:59;;;;;;;23.53;14.53;;;;;;;8.39;81.74;95525.69;5132068;27;20227;-44
2022/12/26 00:41:27;;;;;;;24.37;14.80;;;;;;;8.50;81.52;95543.59;5132241;27;20278;-47
2022/12/26 00:43:54;;;;;;;25.17;14.77;;;;;;;8.49;81.67;95550.41;5131937;27;20257;-45
2022/12/26 00:46:21;;;;;;;21.80;15.10;;;;;;;8.48;81.53;95558.19;5132181;27;20206;-45
2022/12/26 00:48:50;;;;;;;26.07;15.20;;;;;;;8.46;81.56;95557.47;5130874;27;20237;-45
2022/12/26 00:51:17;;;;;;;23.33;14.50;;;;;;;8.45;81.53;95551.53;5131420;27;20196;-46
2022/12/26 00:53:44;;;;;;;22.30;14.00;;;;;;;8.43;81.58;95545.75;5131287;27;20184;-46
2022/12/26 00:56:11;;;;;;;22.47;14.23;;;;;;;8.40;81.49;95552.78;5131493;27;20184;-47
2022/12/26 00:58:39;;;;;;;23.33;14.63;;;;;;;8.41;81.41;95556.97;5130610;27;20227;-46
2022/12/26 01:01:08;;;;;;;22.07;13.50;;;;;;;8.34;81.53;95551.44;5130894;27;20224;-49
2022/12/26 01:03:35;;;;;;;23.37;13.87;;;;;;;8.37;81.57;95556.34;5130760;27;20192;-45
2022/12/26 01:06:04;;;;;;;19.70;13.33;;;;;;;8.38;81.38;95569.94;5131212;27;20564;-46
2022/12/26 01:08:31;;;;;;;19.93;13.20;;;;;;;8.35;81.40;95558.16;5130770;27;20256;-45
2022/12/26 01:11:02;;;;;;;20.07;12.33;;;;;;;8.34;81.44;95569.28;5131483;27;20217;-46
2022/12/26 01:13:28;;;;;;;21.60;13.90;;;;;;;8.32;81.62;95563.44;5130298;27;20574;-46
2022/12/26 01:15:55;;;;;;;20.00;12.20;;;;;;;8.29;81.45;95564.50;5130763;27;20181;-48
2022/12/26 01:18:22;;;;;;;23.07;13.20;;;;;;;8.30;81.48;95571.22;5129250;27;20223;-46
2022/12/26 01:20:49;;;;;;;20.30;11.67;;;;;;;8.30;81.47;95575.50;5131049;27;20184;-45
2022/12/26 01:23:17;;;;;;;20.60;13.23;;;;;;;8.28;81.52;95588.31;5130691;27;20177;-46
2022/12/26 01:25:44;;;;;;;19.87;12.17;;;;;;;8.27;81.47;95589.25;5130618;27;20196;-45
2022/12/26 01:28:11;;;;;;;20.27;12.00;;;;;;;8.22;81.44;95590.47;5130044;27;20245;-46
2022/12/26 01:30:38;;;;;;;18.93;12.33;;;;;;;8.23;81.40;95585.25;5130625;27;20567;-48
2022/12/26 01:33:05;;;;;;;19.50;12.23;;;;;;;8.11;81.37;95564.88;5131086;27;20215;-46
2022/12/26 01:35:32;;;;;;;17.30;11.90;;;;;;;8.23;81.25;95592.91;5130523;27;20284;-45
2022/12/26 01:37:59;;;;;;;18.83;12.07;;;;;;;8.21;81.28;95587.13;5130442;27;20211;-45
2022/12/26 01:40:27;;;;;;;21.63;12.53;;;;;;;8.05;81.28;95559.28;5129756;27;20229;-47
2022/12/26 01:42:54;;;;;;;19.87;12.70;;;;;;;8.17;81.37;95572.94;5130290;27;20672;-46
2022/12/26 01:45:25;;;;;;;20.33;12.40;;;;;;;8.19;81.26;95572.81;5130225;27;20192;-46
2022/12/26 01:47:58;;;;;;;20.07;12.13;;;;;;;8.15;81.20;95558.66;5130746;27;20180;-44
2022/12/26 01:50:30;;;;;;;19.50;11.77;;;;;;;8.16;81.42;95563.69;5129795;27;20569;-46
2022/12/26 01:52:59;;;;;;;21.23;11.87;;;;;;;8.15;81.37;95568.84;5130293;27;20652;-46
2022/12/26 01:55:30;;;;;;;17.43;12.00;;;;;;;8.09;81.33;95561.63;5130433;27;20188;-47
2022/12/26 01:58:01;;;;;;;19.73;12.10;;;;;;;8.13;81.28;95566.41;5129821;27;20222;-46
2022/12/26 02:00:28;;;;;;;17.63;11.37;;;;;;;8.12;81.38;95559.69;5130000;27;20552;-47
2022/12/26 02:05:42;;;;;;;19.57;11.93;;;;;;;8.10;81.32;95558.97;5129960;28;20253;-44
2022/12/26 02:08:17;;;;;;;21.03;11.90;;;;;;;7.90;81.17;95529.72;5130882;28;20257;-47
2022/12/26 02:10:49;;;;;;;19.67;12.30;;;;;;;8.08;81.29;95557.47;5132053;28;20260;-47
2022/12/26 02:13:18;;;;;;;18.07;11.63;;;;;;;8.06;81.25;95552.44;5110011;28;20270;-46
2022/12/26 02:15:45;;;;;;;21.40;12.30;;;;;;;8.05;81.28;95553.38;5109397;28;20192;-44
2022/12/26 02:18:12;;;;;;;20.20;12.20;;;;;;;7.96;81.27;95546.34;5109562;28;20224;-46
2022/12/26 02:20:47;;;;;;;20.40;11.67;;;;;;;7.89;81.18;95532.34;5113545;28;20191;-47
2022/12/26 02:23:48;;;;;;;17.87;11.93;;;;;;;8.02;81.35;95545.91;5129859;28;20184;-46
2022/12/26 02:26:58;;;;;;;19.80;12.83;;;;;;;8.01;81.21;95544.28;5130140;28;20191;-47
2022/12/26 02:30:03;;;;;;;23.03;13.27;;;;;;;7.98;81.27;95545.28;5130332;27;20203;-47
2022/12/26 02:32:50;;;;;;;17.00;11.90;;;;;;;7.97;81.22;95543.69;5133368;27;20226;-45
2022/12/26 02:35:29;;;;;;;16.37;11.77;;;;;;;7.95;81.36;95542.97;5133939;27;20184;-46
2022/12/26 02:38:08;;;;;;;17.07;11.53;;;;;;;7.94;81.39;95548.16;5133957;27;20223;-45
2022/12/26 02:40:49;;;;;;;20.37;11.90;;;;;;;7.92;81.23;95553.34;5133298;27;20247;-47
2022/12/26 02:43:26;;;;;;;18.97;13.47;;;;;;;7.89;81.20;95551.00;5133397;27;20181;-48
2022/12/26 02:48:58;;;;;;;16.83;12.33;;;;;;;7.84;81.13;95540.31;5133525;27;20191;-47
2022/12/26 03:14:22;;;;;;;17.20;12.20;;;;;;;7.76;81.09;95542.53;5112921;28;20231;-45
2022/12/26 03:19:57;;;;;;;17.90;11.97;;;;;;;7.77;81.33;95550.09;5131065;27;20200;-45
2022/12/26 03:22:31;;;;;;;18.43;11.60;;;;;;;7.76;81.27;95553.53;5132899;27;20195;-44
2022/12/26 03:27:47;;;;;;;17.17;11.43;;;;;;;7.68;80.95;95557.47;5132464;27;20195;-48
2022/12/26 03:33:00;;;;;;;18.77;12.37;;;;;;;7.73;80.93;95560.56;5132667;27;20215;-47
2022/12/26 03:35:30;;;;;;;15.20;11.57;;;;;;;7.72;80.81;95562.28;5133213;27;20176;-47
2022/12/26 03:38:02;;;;;;;15.90;11.30;;;;;;;7.71;80.80;95565.75;5132646;27;20281;-45
2022/12/26 04:44:05;;;;;;;14.80;9.73;;;;;;;7.40;80.86;95566.06;5131516;27;20524;-46
2022/12/26 04:46:36;;;;;;;14.17;9.93;;;;;;;7.43;80.62;95573.53;5131244;27;20251;-46
2022/12/26 04:51:50;;;;;;;15.03;9.47;;;;;;;7.42;80.67;95575.22;5131034;27;20279;-47
2022/12/26 04:54:17;;;;;;;14.53;9.47;;;;;;;7.41;80.54;95576.13;5131217;27;20195;-46
2022/12/26 04:56:44;;;;;;;13.70;10.23;;;;;;;7.41;80.62;95572.78;5130823;27;20623;-46
2022/12/26 04:59:11;;;;;;;15.20;10.17;;;;;;;7.41;80.62;95583.78;5131139;27;20232;-46
2022/12/26 05:09:59;;;;;;;13.70;10.00;;;;;;;7.39;80.59;95574.63;5130960;27;20187;-46
2022/12/26 05:12:26;;;;;;;15.60;9.87;;;;;;;7.36;80.22;95579.91;5130906;27;20241;-47
2022/12/26 05:14:53;;;;;;;16.83;10.50;;;;;;;7.34;80.42;95582.53;5130577;27;20560;-45
2022/12/26 05:28:53;;;;;;;13.73;8.90;;;;;;;7.25;80.60;95609.38;5007561;28;20283;-46
2022/12/26 05:31:20;;;;;;;13.80;9.87;;;;;;;7.30;80.38;95616.72;5007193;28;20200;-45
2022/12/26 05:34:05;;;;;;;16.60;9.43;;;;;;;7.29;80.46;95623.50;5007135;28;20262;-46
2022/12/26 05:36:37;;;;;;;14.63;9.90;;;;;;;7.29;80.19;95613.34;5007144;28;20196;-46
2022/12/26 05:39:04;;;;;;;15.20;10.60;;;;;;;7.28;80.47;95614.25;5007272;28;20330;-45
2022/12/26 05:41:31;;;;;;;15.83;9.30;;;;;;;7.28;80.41;95608.34;5006903;28;20204;-47
2022/12/26 05:43:58;;;;;;;14.53;9.90;;;;;;;7.15;80.38;95587.94;5007771;28;20196;-46
2022/12/26 05:46:25;;;;;;;13.27;9.60;;;;;;;7.28;80.33;95605.81;5007425;28;20551;-46
2022/12/26 05:48:53;;;;;;;16.60;10.03;;;;;;;7.27;80.22;95606.72;5008129;28;20227;-46
2022/12/26 05:51:20;;;;;;;15.63;10.33;;;;;;;7.27;80.39;95604.19;5009972;28;20193;-47
2022/12/26 05:53:48;;;;;;;17.00;10.90;;;;;;;7.28;80.34;95609.16;5023331;28;20201;-45
2022/12/26 05:56:16;;;;;;;15.63;10.13;;;;;;;7.26;80.41;95605.91;5089213;27;20271;-47
2022/12/26 05:58:43;;;;;;;15.23;10.57;;;;;;;7.19;80.25;95597.03;5131154;27;20227;-46
2022/12/26 06:01:13;;;;;;;17.03;10.83;;;;;;;7.29;80.21;95608.25;5129777;28;20265;-46
2022/12/26 06:03:42;;;;;;;15.23;10.33;;;;;;;7.17;80.26;95590.41;5130728;28;20185;-45
2022/12/26 06:06:10;;;;;;;16.57;10.40;;;;;;;7.23;80.25;95597.66;5130507;28;20192;-47
2022/12/26 06:08:37;;;;;;;15.80;10.60;;;;;;;7.32;80.25;95609.00;5130229;28;20237;-47
2022/12/26 06:11:06;;;;;;;15.57;10.67;;;;;;;7.34;80.22;95617.31;5130081;28;20195;-46
2022/12/26 06:13:33;;;;;;;18.43;11.07;;;;;;;7.33;80.21;95616.50;5130129;28;20706;-46
2022/12/26 06:15:59;;;;;;;15.20;10.40;;;;;;;7.36;79.74;95615.53;5129594;28;20188;-46
2022/12/26 06:18:26;;;;;;;16.67;11.40;;;;;;;7.37;80.00;95620.50;5129756;28;20223;-46
2022/12/26 06:20:53;;;;;;;16.50;11.13;;;;;;;7.42;80.04;95617.66;5130318;28;20184;-47
2022/12/26 06:23:21;;;;;;;15.80;11.37;;;;;;;7.44;79.82;95626.84;5130169;28;20188;-47
2022/12/26 06:25:54;;;;;;;19.53;12.00;;;;;;;7.50;79.79;95621.38;5129702;28;20249;-46
2022/12/26 06:28:22;;;;;;;18.70;11.83;;;;;;;7.45;79.42;95597.94;5129792;28;20291;-45
2022/12/26 06:30:48;;;;;;;18.37;11.80;;;;;;;7.96;78.24;95630.38;5129807;28;20253;-47
2022/12/26 06:33:15;;;;;;;20.40;12.73;;;;;;;8.30;77.91;95634.09;5129615;28;20188;-45
2022/12/26 06:35:42;;;;;;;20.30;13.17;;;;;;;8.69;77.63;95640.06;5128988;28;20551;-47
2022/12/26 06:38:09;;;;;;;18.73;12.10;;;;;;;8.97;77.54;95624.50;5129586;28;20299;-46
2022/12/26 06:40:40;;;;;;;17.80;12.30;;;;;;;9.49;77.45;95636.22;5130323;28;20231;-49
2022/12/26 06:43:07;;;;;;;19.10;11.90;;;;;;;9.92;78.83;95640.81;5128691;28;20216;-48
2022/12/26 06:45:34;;;;;;;18.60;12.63;;;;;;;10.38;79.27;95634.16;5129749;28;20609;-46
2022/12/26 06:48:01;;;;;;;18.87;12.50;;;;;;;10.82;79.99;95633.38;5129603;28;20196;-46
2022/12/26 06:50:28;;;;;;;17.67;12.40;;;;;;;11.27;80.95;95633.38;5129966;28;20253;-45
2022/12/26 06:52:54;;;;;;;18.00;12.27;;;;;;;11.72;81.53;95634.06;5129635;28;20636;-46
2022/12/26 06:55:21;;;;;;;19.47;12.60;;;;;;;12.15;82.10;95632.44;5129340;28;20185;-46
2022/12/26 06:57:51;;;;;;;18.13;12.93;;;;;;;12.66;82.64;95641.94;5128737;28;20196;-44
2022/12/26 07:00:19;;;;;;;19.13;13.10;;;;;;;13.11;82.38;95641.59;5128824;28;20193;-46
2022/12/26 07:02:50;;;;;;;17.77;12.33;;;;;;;13.55;82.30;95650.66;5129753;28;20214;-45
2022/12/26 07:05:16;;;;;;;14.07;11.87;;;;;;;14.00;82.37;95640.72;5129436;28;20189;-47
2022/12/26 07:07:43;;;;;;;18.90;12.57;;;;;;;14.43;82.10;95651.53;5132469;27;20195;-47
2022/12/26 07:10:10;;;;;;;21.07;12.33;;;;;;;14.83;81.31;95653.09;5128496;28;20192;-48
2022/12/26 07:12:37;;;;;;;22.20;13.40;;;;;;;15.35;77.34;95659.41;5120116;28;20188;-45
2022/12/26 07:15:08;;;;;;;28.87;13.47;;;;;;;16.09;73.39;95653.25;5129272;28;20219;-48
2022/12/26 07:17:35;;;;;;;19.77;13.63;;;;;;;16.80;69.89;95662.72;5131238;27;20189;-46
2022/12/26 07:20:02;;;;;;;23.43;12.47;;;;;;;17.42;67.67;95659.97;5133800;27;20208;-46
2022/12/26 07:22:29;;;;;;;16.20;12.77;;;;;;;17.98;65.76;95667.09;5137061;27;20209;-45
2022/12/26 07:24:56;;;;;;;18.83;12.40;;;;;;;18.48;64.01;95661.00;5132941;27;20399;-46
2022/12/26 07:27:23;;;;;;;18.87;12.23;;;;;;;18.93;62.71;95669.22;5132660;27;20279;-45
2022/12/26 07:29:49;;;;;;;15.17;11.47;;;;;;;19.32;61.33;95669.28;5132601;27;20184;-45
2022/12/26 07:32:18;;;;;;;15.33;12.07;;;;;;;19.67;60.79;95655.03;5133498;27;21056;-47
2022/12/26 07:34:44;;;;;;;16.57;11.57;;;;;;;20.00;59.87;95658.25;5132111;27;20188;-47
2022/12/26 07:37:11;;;;;;;18.63;10.83;;;;;;;20.32;59.02;95653.81;5132438;27;20181;-46
2022/12/26 07:39:38;;;;;;;13.47;10.83;;;;;;;20.58;58.36;95668.25;5133512;27;20227;-45
2022/12/26 07:42:05;;;;;;;15.63;11.60;;;;;;;20.84;58.61;95647.88;5141452;27;20644;-46
2022/12/26 07:44:33;;;;;;;16.93;11.13;;;;;;;20.96;57.81;95651.66;5132355;27;20249;-46
2022/12/26 07:47:01;;;;;;;24.23;11.93;;;;;;;20.93;58.00;95646.00;5142273;27;20190;-44
2022/12/26 07:49:29;;;;;;;15.73;11.38;;;;;;;20.80;58.21;95652.59;5142148;27;20180;-51
2022/12/26 07:51:56;;;;;;;17.02;12.23;;;;;;;20.69;58.69;95657.44;5137651;27;20219;-46
2022/12/26 07:54:23;;;;;;;15.25;11.75;;;;;;;20.42;59.21;95646.59;5136963;27;20181;-46
2022/12/26 07:56:49;;;;;;;17.20;12.47;;;;;;;20.13;59.04;95652.50;5145736;27;20183;-46
2022/12/26 07:59:17;;;;;;;19.45;12.90;;;;;;;19.70;59.24;95644.31;5124140;27;20311;-45
2022/12/26 08:01:44;;;;;;;17.27;13.03;;;;;;;19.49;59.48;95660.44;5138201;27;20181;-49
2022/12/26 08:04:12;;;;;;;17.73;12.30;;;;;;;19.23;59.48;95655.53;5141419;27;20183;-47
2022/12/26 08:06:40;;;;;;;18.87;13.23;;;;;;;19.17;59.13;95647.59;5141279;27;20181;-44
2022/12/26 08:09:07;;;;;;;23.17;12.60;;;;;;;19.45;61.04;95660.97;5140135;27;20892;-47
2022/12/26 08:11:35;;;;;;;21.27;13.17;;;;;;;19.47;61.17;95651.19;5147640;27;20192;-48
2022/12/26 08:14:02;;;;;;;15.27;12.50;;;;;;;19.07;61.47;95624.44;5133915;27;20257;-46
2022/12/26 08:16:30;;;;;;;16.93;12.47;;;;;;;18.93;61.83;95644.09;5132218;27;20192;-46
2022/12/26 08:18:56;;;;;;;19.07;12.50;;;;;;;18.68;61.94;95651.06;5131447;27;20323;-47
2022/12/26 08:21:23;;;;;;;22.13;12.90;;;;;;;18.51;61.80;95654.66;5132400;27;20188;-47
2022/12/26 08:23:51;;;;;;;21.27;13.07;;;;;;;18.30;61.84;95660.31;5132348;27;20188;-47
2022/12/26 08:26:22;;;;;;;20.13;13.53;;;;;;;18.07;61.76;95669.69;5132333;27;20237;-47
2022/12/26 08:28:50;;;;;;;17.50;14.30;;;;;;;17.67;61.63;95647.91;5131420;27;20204;-46
2022/12/26 08:31:16;;;;;;;16.30;12.17;;;;;;;17.64;61.47;95666.34;5131658;27;20664;-49
2022/12/26 08:33:43;;;;;;;21.50;13.77;;;;;;;17.63;61.04;95665.53;5131935;27;20192;-48
2022/12/26 08:36:12;;;;;;;13.50;11.80;;;;;;;17.65;60.12;95668.75;5131891;27;20180;-48
2022/12/26 08:38:40;;;;;;;23.50;13.50;;;;;;;17.61;59.92;95664.84;5131359;27;20300;-48
2022/12/26 08:41:08;;;;;;;22.77;13.53;;;;;;;17.39;60.01;95668.00;5131782;27;20699;-46
2022/12/26 08:43:35;;;;;;;20.20;13.70;;;;;;;17.07;60.26;95653.97;5131257;27;20633;-47
2022/12/26 08:46:04;;;;;;;19.77;14.20;;;;;;;16.86;60.68;95658.72;5131752;27;20625;-46
2022/12/26 08:48:31;;;;;;;18.03;13.93;;;;;;;16.62;60.89;95649.00;5136661;27;20201;-47
2022/12/26 08:51:00;;;;;;;19.43;14.43;;;;;;;16.42;60.94;95645.78;5132253;27;20184;-47
2022/12/26 08:53:28;;;;;;;19.00;13.93;;;;;;;16.22;61.14;95633.03;5133593;27;20249;-48
2022/12/26 08:55:56;;;;;;;20.13;14.47;;;;;;;16.04;61.32;95629.69;5131782;27;20184;-48
2022/12/26 08:58:24;;;;;;;20.37;14.27;;;;;;;15.90;61.34;95636.16;5131855;27;20249;-46
2022/12/26 09:00:54;;;;;;;21.17;14.00;;;;;;;15.76;61.52;95634.09;5134191;27;20199;-50
2022/12/26 09:03:21;;;;;;;22.73;15.27;;;;;;;15.48;61.45;95604.94;5132678;27;20195;-47
2022/12/26 09:05:48;;;;;;;24.40;15.17;;;;;;;15.49;61.59;95622.81;5131780;27;20292;-48
2022/12/26 09:08:15;;;;;;;21.07;14.53;;;;;;;15.39;61.80;95626.41;5131304;27;20194;-47
2022/12/26 09:10:42;;;;;;;21.17;14.70;;;;;;;15.29;61.87;95627.28;5130907;27;20698;-45
2022/12/26 09:13:10;;;;;;;21.23;15.40;;;;;;;15.22;61.84;95626.22;5130908;27;20670;-47
2022/12/26 09:15:38;;;;;;;17.97;14.27;;;;;;;15.13;61.95;95634.00;5131383;27;20237;-47
2022/12/26 09:18:06;;;;;;;22.00;15.70;;;;;;;15.03;62.00;95628.91;5131724;27;20187;-46
2022/12/26 09:20:33;;;;;;;19.83;14.20;;;;;;;14.96;62.05;95625.25;5130962;27;20235;-48
2022/12/26 09:23:00;;;;;;;19.53;14.67;;;;;;;14.89;62.19;95630.16;5130922;27;20245;-47
2022/12/26 09:25:27;;;;;;;20.17;14.50;;;;;;;14.83;62.15;95625.56;5131000;27;20188;-47
2022/12/26 09:27:54;;;;;;;20.60;15.27;;;;;;;14.76;62.21;95630.47;5132617;27;20571;-47
2022/12/26 09:30:21;;;;;;;19.67;14.23;;;;;;;14.72;62.21;95621.41;5133306;27;20668;-48
2022/12/26 09:32:50;;;;;;;20.67;14.57;;;;;;;14.67;61.77;95617.63;5131113;27;20206;-49
2022/12/26 09:35:17;;;;;;;20.90;14.93;;;;;;;14.61;62.24;95624.16;5131482;27;20188;-48
2022/12/26 09:37:44;;;;;;;22.37;15.53;;;;;;;14.57;62.24;95620.22;5130621;27;20181;-47
2022/12/26 09:40:22;;;;;;;23.93;17.23;;;;;;;14.52;62.01;95619.84;5129589;27;20326;-46
2022/12/26 09:42:59;;;;;;;27.03;16.37;;;;;;;14.43;62.09;95621.44;5129958;27;20283;-46
2022/12/26 09:45:35;;;;;;;25.10;17.73;;;;;;;14.41;62.17;95620.75;5130579;27;20298;-46
2022/12/26 09:48:11;;;;;;;25.20;17.73;;;;;;;14.38;62.31;95615.06;5130203;27;20725;-47
2022/12/26 09:50:40;;;;;;;25.60;18.87;;;;;;;14.31;62.28;95605.34;5130067;27;20306;-46
2022/12/26 09:53:12;;;;;;;25.33;18.77;;;;;;;14.26;62.21;95604.16;5130337;27;20184;-47
2022/12/26 09:55:44;;;;;;;24.87;18.90;;;;;;;14.27;62.40;95604.00;5130176;27;20203;-48
2022/12/26 09:58:28;;;;;;;27.47;19.03;;;;;;;14.21;62.29;95614.84;5130249;27;20184;-47
2022/12/26 10:01:01;;;;;;;31.33;19.87;;;;;;;14.21;62.37;95606.31;5129688;27;20226;-48
2022/12/26 10:03:30;;;;;;;26.73;19.50;;;;;;;14.21;62.43;95607.13;5130650;27;20196;-46
2022/12/26 10:06:11;;;;;;;26.10;19.73;;;;;;;14.19;62.28;95596.16;5130133;28;20644;-48
2022/12/26 10:08:49;;;;;;;33.27;21.83;;;;;;;13.98;62.39;95568.00;5130581;28;20244;-49
2022/12/26 10:11:24;;;;;;;34.47;20.40;;;;;;;14.19;62.16;95590.19;5130518;28;20611;-47
2022/12/26 10:13:58;;;;;;;30.83;21.63;;;;;;;14.20;62.20;95591.81;5129904;28;20282;-46
2022/12/26 10:16:44;;;;;;;31.33;21.73;;;;;;;14.19;62.25;95588.44;5130583;28;20548;-48
2022/12/26 10:19:30;;;;;;;30.83;22.47;;;;;;;14.20;62.16;95572.03;5129959;28;20220;-47
2022/12/26 10:22:11;;;;;;;27.83;21.07;;;;;;;14.26;61.92;95579.22;5130073;28;20189;-46
2022/12/26 10:24:42;;;;;;;31.60;20.73;;;;;;;14.28;61.78;95573.94;5130149;28;20192;-48
2022/12/26 10:27:14;;;;;;;29.80;21.67;;;;;;;14.09;61.95;95535.38;5130368;28;20678;-49
2022/12/26 10:29:46;;;;;;;31.30;20.97;;;;;;;14.34;61.72;95567.44;5130063;28;20195;-46
2022/12/26 10:32:17;;;;;;;26.53;20.00;;;;;;;14.40;61.75;95566.88;5131077;28;20199;-46
2022/12/26 10:34:47;;;;;;;29.63;20.27;;;;;;;14.44;61.66;95563.06;5130132;28;20600;-48
2022/12/26 10:37:24;;;;;;;28.60;20.53;;;;;;;14.49;61.36;95563.47;5129990;28;20192;-47
2022/12/26 10:39:56;;;;;;;29.93;19.67;;;;;;;14.52;61.45;95553.72;5129604;28;20231;-46
2022/12/26 10:42:27;;;;;;;28.63;19.93;;;;;;;14.57;61.38;95561.03;5130177;28;20200;-48
2022/12/26 10:44:54;;;;;;;27.90;19.97;;;;;;;14.55;61.32;95548.31;5130041;28;20196;-45
2022/12/26 10:47:25;;;;;;;30.33;19.30;;;;;;;14.65;61.15;95548.25;5130012;28;20196;-48
2022/12/26 10:49:58;;;;;;;30.70;20.30;;;;;;;14.68;61.07;95553.13;5129433;28;20671;-48
2022/12/26 10:52:31;;;;;;;31.27;20.07;;;;;;;14.70;61.18;95551.22;5133316;27;20552;-50
2022/12/26 10:54:59;;;;;;;26.67;19.00;;;;;;;14.73;61.02;95543.22;5133775;27;20366;-50
2022/12/26 10:57:29;;;;;;;28.83;18.27;;;;;;;14.77;60.92;95541.19;5133650;27;20188;-48
2022/12/26 10:59:57;;;;;;;27.43;18.53;;;;;;;14.86;60.70;95547.22;5133190;27;20306;-53
2022/12/26 11:02:26;;;;;;;24.17;18.30;;;;;;;14.95;60.50;95541.22;5133431;27;20223;-49
2022/12/26 11:05:07;;;;;;;26.77;19.33;;;;;;;14.91;60.54;95520.09;5133822;27;20207;-50
2022/12/26 11:07:36;;;;;;;26.17;17.83;;;;;;;15.08;60.09;95533.97;5133744;27;20189;-51
2022/12/26 11:10:06;;;;;;;25.90;18.47;;;;;;;15.08;60.54;95530.56;5132886;27;20729;-50
2022/12/26 11:12:40;;;;;;;27.30;18.23;;;;;;;14.93;60.24;95497.56;5133373;27;20204;-48
2022/12/26 11:15:19;;;;;;;23.53;17.20;;;;;;;15.16;60.39;95525.50;5133390;27;20615;-48
2022/12/26 11:17:50;;;;;;;28.80;18.60;;;;;;;15.17;60.32;95516.81;5133482;27;20188;-46
2022/12/26 11:20:30;;;;;;;24.80;18.93;;;;;;;15.18;60.12;95516.66;5133625;27;20307;-47
2022/12/26 11:23:18;;;;;;;26.87;16.97;;;;;;;15.18;60.08;95519.25;5132983;27;20241;-49
2022/12/26 11:25:50;;;;;;;23.43;16.83;;;;;;;15.19;60.16;95507.16;5133373;27;20204;-46
2022/12/26 11:28:28;;;;;;;23.27;16.57;;;;;;;15.20;60.03;95509.63;5132707;27;20580;-46
2022/12/26 11:30:55;;;;;;;23.33;16.80;;;;;;;15.04;59.90;95479.34;5132692;27;20203;-47
2022/12/26 11:33:28;;;;;;;22.30;16.33;;;;;;;15.22;59.97;95507.69;5133519;27;20187;-46
2022/12/26 11:36:06;;;;;;;24.33;16.50;;;;;;;15.23;59.89;95501.56;5133301;27;20801;-47
2022/12/26 11:38:43;;;;;;;23.90;16.37;;;;;;;15.21;59.76;95498.34;5132782;27;20199;-46
2022/12/26 11:44:00;;;;;;;24.93;14.87;;;;;;;15.18;59.63;95485.75;5133116;27;20187;-47
2022/12/26 11:46:39;;;;;;;20.27;14.57;;;;;;;15.26;59.64;95493.56;5133254;27;20188;-49
2022/12/26 11:49:14;;;;;;;21.90;14.83;;;;;;;15.17;59.70;95480.75;5133255;27;20187;-47
2022/12/26 11:51:46;;;;;;;19.60;14.73;;;;;;;15.21;59.67;95471.78;5133297;27;20200;-47
2022/12/26 11:54:20;;;;;;;21.73;14.53;;;;;;;15.28;59.66;95489.09;5114671;27;20189;-46
2022/12/26 11:56:47;;;;;;;18.63;15.33;;;;;;;15.18;59.63;95472.06;5133096;27;20213;-47
2022/12/26 11:59:19;;;;;;;18.33;14.10;;;;;;;15.29;59.60;95488.13;5132646;27;20196;-48
2022/12/26 12:01:46;;;;;;;21.67;13.87;;;;;;;15.29;59.54;95480.38;5132709;27;20303;-47
2022/12/26 12:04:13;;;;;;;17.10;14.07;;;;;;;15.04;59.51;95434.75;5131649;27;20184;-47
2022/12/26 12:07:04;;;;;;;21.27;13.53;;;;;;;15.31;59.63;95477.66;5132393;27;20252;-48
2022/12/26 12:09:41;;;;;;;16.93;12.90;;;;;;;15.30;59.40;95463.97;5132177;27;20176;-47
2022/12/26 12:12:16;;;;;;;18.00;12.73;;;;;;;15.32;59.28;95474.09;5132596;27;20199;-47
2022/12/26 12:14:58;;;;;;;17.10;12.97;;;;;;;15.32;59.46;95463.81;5132325;27;20536;-49
2022/12/26 12:17:32;;;;;;;17.30;12.83;;;;;;;15.31;59.33;95463.00;5134011;27;20195;-48
2022/12/26 12:20:19;;;;;;;14.20;12.10;;;;;;;15.31;59.30;95464.78;5131997;27;20216;-47
2022/12/26 12:23:04;;;;;;;16.93;12.13;;;;;;;15.31;59.18;95469.91;5132085;27;20196;-49
2022/12/26 12:25:41;;;;;;;16.63;12.20;;;;;;;15.29;59.27;95462.34;5132254;27;20653;-48
2022/12/26 12:28:26;;;;;;;14.40;11.20;;;;;;;15.29;59.34;95464.94;5131774;27;20252;-48
2022/12/26 12:31:01;;;;;;;16.73;11.60;;;;;;;15.29;59.28;95464.13;5132150;27;20188;-46
2022/12/26 12:33:42;;;;;;;16.47;11.30;;;;;;;15.29;59.14;95462.34;5132571;27;20176;-47
2022/12/26 12:36:11;;;;;;;14.17;10.87;;;;;;;15.30;59.19;95463.16;5132131;27;20198;-45
2022/12/26 12:38:55;;;;;;;16.73;11.67;;;;;;;15.23;59.14;95451.81;5132164;27;20244;-47
2022/12/26 12:41:48;;;;;;;15.00;11.07;;;;;;;15.28;59.06;95463.31;5131655;27;20216;-47
2022/12/26 12:44:21;;;;;;;14.27;10.27;;;;;;;15.27;59.12;95461.66;5131757;27;20184;-49
2022/12/26 12:46:58;;;;;;;14.07;10.50;;;;;;;15.26;59.18;95462.63;5131820;27;20218;-48
2022/12/26 12:49:38;;;;;;;14.47;10.00;;;;;;;15.25;59.16;95465.38;5132273;27;20241;-49
2022/12/26 12:52:18;;;;;;;13.03;9.77;;;;;;;15.16;58.93;95449.03;5132712;27;20191;-50
2022/12/26 12:55:04;;;;;;;12.80;9.60;;;;;;;15.25;59.15;95465.38;5132267;27;20180;-46
2022/12/26 12:57:40;;;;;;;15.83;10.00;;;;;;;15.19;59.14;95451.28;5131992;27;20183;-46
2022/12/26 13:00:15;;;;;;;12.87;9.97;;;;;;;15.23;59.12;95462.13;5132385;27;20228;-47
2022/12/26 13:02:50;;;;;;;15.70;9.83;;;;;;;15.06;59.12;95438.75;5132027;27;20504;-47
2022/12/26 13:05:27;;;;;;;13.30;9.40;;;;;;;15.16;59.35;95456.75;5132219;27;20176;-47
2022/12/26 13:08:00;;;;;;;12.47;9.57;;;;;;;15.11;59.33;95461.53;5131449;27;20184;-48
2022/12/26 13:10:31;;;;;;;11.77;9.47;;;;;;;15.07;59.36;95452.47;5131832;27;20522;-48
2022/12/26 13:13:04;;;;;;;13.93;9.40;;;;;;;15.05;59.33;95450.03;5131298;27;20248;-46
2022/12/26 13:15:35;;;;;;;12.30;9.07;;;;;;;15.02;59.45;95454.66;5131590;27;20203;-46
2022/12/26 13:18:07;;;;;;;12.70;9.43;;;;;;;15.00;59.69;95456.59;5131060;27;20185;-48
2022/12/26 13:20:40;;;;;;;12.30;9.17;;;;;;;14.99;59.55;95462.69;5131559;27;20223;-46
2022/12/26 13:26:09;;;;;;;11.87;8.27;;;;;;;14.94;59.59;95458.00;5131206;27;20211;-46
2022/12/26 13:28:42;;;;;;;11.70;8.33;;;;;;;14.93;59.60;95452.97;5130633;27;20196;-46
2022/12/26 13:31:09;;;;;;;10.37;8.47;;;;;;;14.93;59.70;95455.53;5131083;27;20180;-47
2022/12/26 13:33:36;;;;;;;12.47;8.60;;;;;;;14.93;59.67;95446.03;5130702;27;20648;-46
2022/12/26 13:36:06;;;;;;;11.57;8.60;;;;;;;14.92;59.55;95449.59;5131056;27;20188;-48
2022/12/26 13:39:10;;;;;;;10.43;8.47;;;;;;;14.90;59.61;95448.94;5130793;27;20177;-49
2022/12/26 13:44:27;;;;;;;11.10;8.07;;;;;;;14.59;59.83;95409.00;5130523;27;20223;-46
2022/12/26 13:46:56;;;;;;;10.23;7.50;;;;;;;14.75;59.80;95456.31;5130509;27;20663;-48
2022/12/26 13:49:29;;;;;;;10.10;7.50;;;;;;;14.72;59.93;95454.06;5130459;27;20196;-47
2022/12/26 13:51:58;;;;;;;10.07;7.27;;;;;;;14.69;59.90;95456.09;5130613;27;20188;-48